Time;durP1;ratioP1;P1;durP2;ratioP2;P2;SDS_P1;SDS_P2;PMS_P1;PMS_P2;Temp;Humidity;BMP_temperature;BMP_pressure;BME280_temperature;BME280_humidity;BME280_pressure;Samples;Min_cycle;Max_cycle;Signal;HPM_P1;HPM_P2
2022/02/02 00:00:18;;;;;;;0.30;0.30;;;4.70;99.80;;;;;;5033123;28;20531;-69
2022/02/02 00:02:54;;;;;;;0.30;0.30;;;4.30;99.90;;;;;;5033225;28;20179;-69
2022/02/02 00:07:53;;;;;;;0.40;0.40;;;3.90;99.90;;;;;;5033246;28;20175;-69
2022/02/02 00:11:06;;;;;;;0.38;0.38;;;4.10;99.90;;;;;;5033016;28;20535;-69
2022/02/02 00:13:12;;;;;;;0.30;0.30;;;4.20;99.90;;;;;;5032531;28;20183;-69
2022/02/02 00:23:39;;;;;;;0.30;0.30;;;4.70;99.90;;;;;;5016927;28;20218;-68
2022/02/02 00:26:10;;;;;;;0.30;0.30;;;4.70;99.90;;;;;;5033110;28;20171;-69
2022/02/02 00:28:40;;;;;;;0.40;0.40;;;4.80;99.90;;;;;;5032782;28;20175;-69
2022/02/02 00:31:11;;;;;;;0.30;0.30;;;4.80;99.90;;;;;;5036700;28;20220;-69
2022/02/02 00:33:44;;;;;;;0.35;0.35;;;4.90;99.90;;;;;;5036478;28;20271;-69
2022/02/02 00:36:16;;;;;;;0.30;0.30;;;5.10;99.90;;;;;;5035173;28;20228;-69
2022/02/02 00:38:41;;;;;;;0.30;0.30;;;5.10;99.50;;;;;;5036198;28;20645;-69
2022/02/02 00:41:07;;;;;;;0.40;0.40;;;4.90;99.60;;;;;;5036501;28;20175;-68
2022/02/02 00:43:33;;;;;;;0.40;0.40;;;4.90;99.90;;;;;;5036177;28;20294;-69
2022/02/02 00:45:59;;;;;;;0.30;0.30;;;4.90;99.90;;;;;;5036161;28;20190;-69
2022/02/02 00:48:27;;;;;;;0.40;0.40;;;4.90;99.90;;;;;;5034633;28;20217;-69
2022/02/02 00:50:53;;;;;;;0.30;0.30;;;4.90;99.90;;;;;;5036210;28;20163;-69
2022/02/02 00:53:19;;;;;;;0.30;0.30;;;4.80;99.90;;;;;;5036147;28;20166;-68
2022/02/02 00:55:45;;;;;;;0.30;0.30;;;4.50;99.90;;;;;;5036000;28;20242;-69
2022/02/02 00:58:11;;;;;;;0.30;0.30;;;4.60;99.90;;;;;;5035901;28;20457;-69
2022/02/02 01:00:37;;;;;;;0.38;0.38;;;4.40;99.90;;;;;;5035960;28;20832;-69
2022/02/02 01:03:03;;;;;;;0.30;0.30;;;4.60;99.90;;;;;;5036043;28;20256;-69
2022/02/02 01:05:29;;;;;;;0.40;0.40;;;4.80;99.90;;;;;;5035750;28;20406;-69
2022/02/02 01:10:58;;;;;;;0.30;0.30;;;4.60;99.90;;;;;;5036275;28;20663;-69
2022/02/02 01:14:14;;;;;;;0.40;0.40;;;4.70;99.90;;;;;;5035768;28;20245;-69
2022/02/02 01:18:47;;;;;;;0.30;0.30;;;4.90;99.90;;;;;;5035796;28;20175;-69
2022/02/02 01:21:54;;;;;;;0.30;0.30;;;5.00;99.90;;;;;;5034411;28;20628;-69
2022/02/02 01:29:42;;;;;;;0.38;0.38;;;4.90;99.90;;;;;;5035213;28;20189;-69
2022/02/02 01:32:07;;;;;;;0.30;0.30;;;4.90;99.90;;;;;;5035496;28;20171;-69
2022/02/02 01:34:33;;;;;;;0.40;0.40;;;4.90;99.90;;;;;;5035116;28;20210;-69
2022/02/02 01:36:59;;;;;;;0.40;0.40;;;5.00;99.90;;;;;;5035178;28;20199;-69
2022/02/02 01:39:27;;;;;;;0.30;0.30;;;5.10;99.90;;;;;;5035064;28;20194;-69
2022/02/02 01:41:53;;;;;;;0.30;0.30;;;5.00;99.90;;;;;;5034649;28;20163;-69
2022/02/02 01:47:05;;;;;;;0.30;0.30;;;4.70;99.90;;;;;;5035303;28;20161;-69
2022/02/02 01:54:55;;;;;;;0.30;0.30;;;5.10;99.90;;;;;;5034867;28;20289;-69
2022/02/02 02:00:08;;;;;;;0.30;0.30;;;5.00;99.90;;;;;;5034670;28;20246;-69
2022/02/02 02:02:35;;;;;;;0.30;0.30;;;5.10;99.90;;;;;;5034762;28;20633;-69
2022/02/02 02:05:02;;;;;;;0.30;0.30;;;5.30;99.90;;;;;;5034621;28;20281;-69
2022/02/02 02:07:28;;;;;;;0.40;0.40;;;5.30;99.90;;;;;;5034734;28;20203;-68
2022/02/02 02:09:57;;;;;;;0.40;0.40;;;5.20;99.90;;;;;;5034377;28;20641;-68
2022/02/02 02:12:23;;;;;;;0.40;0.40;;;5.20;99.90;;;;;;5034530;28;20170;-68
2022/02/02 02:14:56;;;;;;;0.38;0.38;;;5.30;99.90;;;;;;5034778;28;20233;-69
2022/02/02 02:17:24;;;;;;;0.35;0.35;;;5.20;99.90;;;;;;5034488;28;20535;-69
2022/02/02 02:19:51;;;;;;;0.40;0.40;;;5.20;99.90;;;;;;5034373;28;20194;-69
2022/02/02 02:22:27;;;;;;;0.40;0.40;;;5.30;99.90;;;;;;5034549;28;20171;-69
2022/02/02 02:24:53;;;;;;;0.38;0.38;;;5.40;99.90;;;;;;5034390;28;20194;-69
2022/02/02 02:27:22;;;;;;;0.30;0.30;;;5.30;99.90;;;;;;5034620;28;20204;-69
2022/02/02 02:35:17;;;;;;;0.30;0.30;;;5.30;99.90;;;;;;5034142;28;20263;-69
2022/02/02 02:38:13;;;;;;;0.30;0.30;;;5.20;99.90;;;;;;5033817;28;20214;-69
2022/02/02 02:56:57;;;;;;;0.40;0.40;;;5.00;99.90;;;;;;5033671;28;20213;-69
2022/02/02 02:59:32;;;;;;;0.40;0.40;;;5.20;99.90;;;;;;5033510;28;20171;-69
2022/02/02 03:02:43;;;;;;;0.30;0.30;;;5.30;99.90;;;;;;5033912;28;20170;-69
2022/02/02 03:30:10;;;;;;;0.63;0.63;;;5.00;99.90;;;;;;5021402;28;20758;-69
2022/02/02 03:33:02;;;;;;;0.30;0.30;;;4.90;99.90;;;;;;5033093;28;20186;-69
2022/02/02 04:08:15;;;;;;;0.40;0.40;;;5.20;99.90;;;;;;5037038;28;20575;-69
2022/02/02 04:10:41;;;;;;;0.30;0.30;;;5.20;99.90;;;;;;5036905;28;20167;-69
2022/02/02 04:13:17;;;;;;;0.37;0.37;;;5.10;99.90;;;;;;5036761;28;20182;-69
2022/02/02 05:05:05;;;;;;;0.30;0.30;;;5.10;99.90;;;;;;5036037;28;20201;-69
2022/02/02 05:07:51;;;;;;;0.40;0.40;;;5.10;99.90;;;;;;5035720;28;20209;-68
2022/02/02 05:18:07;;;;;;;0.30;0.30;;;4.90;99.90;;;;;;5035567;28;20235;-69
2022/02/02 05:27:33;;;;;;;0.30;0.30;;;5.20;99.90;;;;;;5035440;28;20166;-69
2022/02/02 05:40:55;;;;;;;0.38;0.38;;;5.30;99.90;;;;;;5027886;28;20637;-68
2022/02/02 05:53:00;;;;;;;0.35;0.35;;;5.50;99.90;;;;;;5032634;28;20755;-68
2022/02/02 05:55:27;;;;;;;0.30;0.30;;;5.20;99.90;;;;;;5034835;28;20194;-69
2022/02/02 05:57:54;;;;;;;0.30;0.30;;;5.30;99.90;;;;;;5034783;28;20574;-69
2022/02/02 06:00:20;;;;;;;0.40;0.40;;;5.50;99.90;;;;;;5034723;28;20171;-69
2022/02/02 06:02:47;;;;;;;0.30;0.30;;;5.50;99.90;;;;;;5034926;28;20170;-69
2022/02/02 06:05:14;;;;;;;0.40;0.40;;;5.60;99.90;;;;;;5034727;28;20191;-69
2022/02/02 06:07:42;;;;;;;0.75;0.75;;;5.60;99.90;;;;;;5035075;28;20186;-69
2022/02/02 06:10:11;;;;;;;0.40;0.40;;;5.60;99.90;;;;;;5034537;28;20171;-69
2022/02/02 06:12:39;;;;;;;0.38;0.38;;;5.60;99.90;;;;;;5034624;28;20205;-69
2022/02/02 06:15:12;;;;;;;0.40;0.40;;;5.40;99.90;;;;;;5034487;28;20194;-69
2022/02/02 06:17:47;;;;;;;0.40;0.40;;;5.60;99.90;;;;;;5034614;28;20230;-69
2022/02/02 06:20:13;;;;;;;0.40;0.40;;;5.70;99.90;;;;;;5034393;28;20170;-69
2022/02/02 06:23:05;;;;;;;0.35;0.35;;;5.80;99.90;;;;;;5034397;28;20668;-69
2022/02/02 06:25:33;;;;;;;0.30;0.30;;;5.60;99.90;;;;;;5031093;28;20186;-69
2022/02/02 06:28:05;;;;;;;0.35;0.35;;;5.50;99.90;;;;;;5033039;28;20174;-69
2022/02/02 06:30:32;;;;;;;0.40;0.40;;;5.40;99.90;;;;;;5034014;28;20167;-69
2022/02/02 06:33:04;;;;;;;0.40;0.40;;;5.50;99.90;;;;;;5034226;28;20183;-68
2022/02/02 06:35:31;;;;;;;0.40;0.40;;;5.40;99.90;;;;;;5034476;28;20489;-68
2022/02/02 06:37:57;;;;;;;0.30;0.30;;;5.70;99.90;;;;;;5034137;28;20210;-69
2022/02/02 06:40:24;;;;;;;0.32;0.32;;;5.80;99.90;;;;;;5034092;28;20166;-69
2022/02/02 06:42:51;;;;;;;0.30;0.30;;;5.90;99.90;;;;;;5034121;28;20175;-69
2022/02/02 06:45:18;;;;;;;0.40;0.40;;;6.00;99.90;;;;;;5033986;28;20282;-69
2022/02/02 06:47:47;;;;;;;0.32;0.32;;;6.00;99.90;;;;;;5034153;28;20175;-69
2022/02/02 06:50:39;;;;;;;1.95;1.85;;;5.80;99.90;;;;;;5033871;28;20521;-69
2022/02/02 06:53:23;;;;;;;0.40;0.40;;;5.80;99.90;;;;;;5033648;28;20225;-69
2022/02/02 06:56:26;;;;;;;0.30;0.30;;;5.50;99.90;;;;;;5032643;28;20175;-69
2022/02/02 07:07:51;;;;;;;0.40;0.40;;;5.60;99.90;;;;;;5033956;28;20224;-69
2022/02/02 07:10:38;;;;;;;0.38;0.38;;;5.50;99.90;;;;;;5033473;28;20201;-69
2022/02/02 07:13:32;;;;;;;0.40;0.40;;;5.80;99.90;;;;;;5032354;28;20174;-69
2022/02/02 07:31:33;;;;;;;0.40;0.40;;;6.00;99.90;;;;;;5033645;28;20182;-69
2022/02/02 07:34:30;;;;;;;0.40;0.40;;;6.00;99.90;;;;;;5033042;28;20202;-68
2022/02/02 07:37:00;;;;;;;0.30;0.30;;;6.10;99.90;;;;;;5033456;28;20222;-69
2022/02/02 07:39:26;;;;;;;0.30;0.30;;;5.80;99.90;;;;;;5034649;28;20163;-69
2022/02/02 07:41:59;;;;;;;0.30;0.30;;;5.50;99.90;;;;;;5037468;28;20163;-69
2022/02/02 07:44:29;;;;;;;0.40;0.40;;;5.50;99.90;;;;;;5037485;28;20237;-68
2022/02/02 07:46:59;;;;;;;0.30;0.30;;;5.60;99.90;;;;;;5037567;28;20663;-68
2022/02/02 07:49:30;;;;;;;0.30;0.30;;;5.40;99.90;;;;;;5037131;28;20182;-69
2022/02/02 07:51:56;;;;;;;0.40;0.40;;;5.60;99.90;;;;;;5038030;28;20169;-69
2022/02/02 07:54:29;;;;;;;0.38;0.38;;;5.50;99.90;;;;;;5037136;28;20240;-68
2022/02/02 07:56:56;;;;;;;0.40;0.40;;;5.50;99.90;;;;;;5036199;28;20247;-68
2022/02/02 08:02:16;;;;;;;0.40;0.40;;;5.40;99.90;;;;;;5034091;28;20175;-69
2022/02/02 08:04:42;;;;;;;0.40;0.40;;;5.50;99.90;;;;;;5036929;28;20291;-69
2022/02/02 08:07:11;;;;;;;0.30;0.30;;;5.70;99.90;;;;;;5037002;28;20259;-69
2022/02/02 08:09:46;;;;;;;0.30;0.30;;;5.90;99.90;;;;;;5035521;28;20210;-69
2022/02/02 08:12:19;;;;;;;0.38;0.38;;;6.00;99.90;;;;;;5037073;28;20232;-69
2022/02/02 08:14:52;;;;;;;0.30;0.30;;;5.70;99.90;;;;;;5036928;28;20255;-69
2022/02/02 08:17:18;;;;;;;0.30;0.30;;;5.50;99.90;;;;;;5035436;28;20757;-69
2022/02/02 08:19:43;;;;;;;0.40;0.40;;;5.70;99.90;;;;;;5036621;28;20167;-69
2022/02/02 08:22:09;;;;;;;0.40;0.40;;;5.70;99.90;;;;;;5036697;28;20171;-68
2022/02/02 08:24:35;;;;;;;0.40;0.40;;;5.70;99.90;;;;;;5036531;28;20187;-69
2022/02/02 08:27:00;;;;;;;0.37;0.37;;;5.90;99.90;;;;;;5036519;28;20181;-69
2022/02/02 08:29:26;;;;;;;0.40;0.40;;;6.00;99.90;;;;;;5036368;28;20580;-68
2022/02/02 08:31:52;;;;;;;0.40;0.40;;;6.10;99.90;;;;;;5036815;28;20502;-69
2022/02/02 08:34:19;;;;;;;0.30;0.30;;;6.00;99.90;;;;;;5036368;28;20234;-68
2022/02/02 08:36:50;;;;;;;0.30;0.30;;;6.00;99.90;;;;;;5036467;28;20191;-69
2022/02/02 08:39:29;;;;;;;0.40;0.40;;;6.10;99.90;;;;;;5036252;28;20568;-68
2022/02/02 08:42:02;;;;;;;0.30;0.30;;;6.20;99.90;;;;;;5036355;28;20520;-69
2022/02/02 08:44:39;;;;;;;0.32;0.32;;;6.30;99.90;;;;;;5036191;28;20199;-69
2022/02/02 08:47:08;;;;;;;0.38;0.38;;;6.30;99.90;;;;;;5036515;28;20177;-69
2022/02/02 08:49:40;;;;;;;0.40;0.40;;;6.20;99.90;;;;;;5036121;28;20602;-69
2022/02/02 08:52:07;;;;;;;0.40;0.40;;;5.90;99.90;;;;;;5034636;28;20167;-69
2022/02/02 08:54:58;;;;;;;0.40;0.40;;;6.00;99.90;;;;;;5036018;28;20556;-69
2022/02/02 09:00:10;;;;;;;0.30;0.30;;;6.40;99.90;;;;;;5036044;28;20259;-68
2022/02/02 09:02:38;;;;;;;0.30;0.30;;;6.40;99.90;;;;;;5034868;28;20177;-69
2022/02/02 09:07:49;;;;;;;0.30;0.30;;;6.10;99.90;;;;;;5036131;28;20177;-68
2022/02/02 09:19:57;;;;;;;0.40;0.40;;;6.40;99.90;;;;;;5035786;28;20186;-69
2022/02/02 09:24:20;;;;;;;0.30;0.30;;;6.50;99.90;;;;;;5011491;28;20215;-69
2022/02/02 09:32:32;;;;;;;0.35;0.35;;;6.60;99.90;;;;;;5035771;28;20189;-69
2022/02/02 09:34:58;;;;;;;0.40;0.40;;;6.80;99.90;;;;;;5035123;28;20238;-69
2022/02/02 09:37:26;;;;;;;0.40;0.40;;;6.60;99.90;;;;;;5035397;28;20232;-69
2022/02/02 09:40:12;;;;;;;0.32;0.32;;;6.30;99.90;;;;;;5034952;28;20163;-69
2022/02/02 09:42:37;;;;;;;0.40;0.40;;;6.40;99.90;;;;;;5035310;28;20182;-69
2022/02/02 09:45:09;;;;;;;0.40;0.40;;;6.70;99.90;;;;;;5034960;28;20190;-69
2022/02/02 09:47:44;;;;;;;0.30;0.30;;;6.80;99.90;;;;;;5033719;28;20960;-68
2022/02/02 09:50:21;;;;;;;0.30;0.30;;;7.00;99.70;;;;;;5035026;28;20549;-69
2022/02/02 09:52:54;;;;;;;0.30;0.30;;;6.90;99.50;;;;;;5035273;28;20645;-68
2022/02/02 10:04:31;;;;;;;0.40;0.40;;;6.90;99.30;;;;;;5034461;28;20193;-69
2022/02/02 10:15:47;;;;;;;0.38;0.38;;;7.10;99.90;;;;;;5034558;28;20182;-68
2022/02/02 10:18:18;;;;;;;0.35;0.35;;;7.00;99.20;;;;;;5034469;28;20198;-68
2022/02/02 10:20:44;;;;;;;0.38;0.38;;;7.00;99.60;;;;;;5034580;28;20171;-69
2022/02/02 10:23:10;;;;;;;0.35;0.35;;;7.00;99.60;;;;;;5034538;28;20224;-69
2022/02/02 10:25:36;;;;;;;0.32;0.32;;;6.70;99.90;;;;;;5034357;28;20175;-68
2022/02/02 10:28:11;;;;;;;0.30;0.30;;;6.80;99.90;;;;;;5034445;28;20256;-68
2022/02/02 10:30:40;;;;;;;0.30;0.30;;;7.00;99.90;;;;;;5034494;28;20550;-69
2022/02/02 10:33:11;;;;;;;0.32;0.32;;;7.00;99.90;;;;;;5034188;28;20278;-69
2022/02/02 10:35:42;;;;;;;0.40;0.40;;;6.90;99.80;;;;;;5034165;28;20179;-69
2022/02/02 10:38:14;;;;;;;0.30;0.30;;;6.90;99.90;;;;;;5034305;28;20207;-69
2022/02/02 10:43:38;;;;;;;0.30;0.30;;;7.00;99.90;;;;;;5034445;28;20177;-68
2022/02/02 10:46:20;;;;;;;0.30;0.30;;;7.20;99.90;;;;;;5034139;28;20156;-68
2022/02/02 10:48:52;;;;;;;0.38;0.38;;;7.50;99.80;;;;;;5033976;28;20197;-68
2022/02/02 10:51:35;;;;;;;0.30;0.30;;;7.10;99.00;;;;;;5034277;28;20647;-69
2022/02/02 10:59:44;;;;;;;0.40;0.40;;;6.50;99.90;;;;;;5033718;28;20663;-69
2022/02/02 11:07:43;;;;;;;0.40;0.40;;;6.70;99.90;;;;;;5033900;28;20198;-69
2022/02/02 11:10:12;;;;;;;0.40;0.40;;;6.80;99.90;;;;;;5033493;28;20557;-68
2022/02/02 11:12:40;;;;;;;0.38;0.38;;;7.10;99.90;;;;;;5033576;28;20171;-68
2022/02/02 11:15:35;;;;;;;0.40;0.40;;;7.40;99.90;;;;;;5032704;28;20202;-68
2022/02/02 11:18:08;;;;;;;0.40;0.40;;;7.60;99.40;;;;;;5033577;28;20186;-69
2022/02/02 11:20:37;;;;;;;0.32;0.32;;;7.90;98.70;;;;;;5033339;28;20238;-68
2022/02/02 11:23:05;;;;;;;0.30;0.30;;;7.90;98.20;;;;;;5033561;28;20177;-69
2022/02/02 11:25:35;;;;;;;0.30;0.30;;;7.80;98.20;;;;;;5033553;28;20168;-69
2022/02/02 11:28:04;;;;;;;0.30;0.30;;;7.80;98.30;;;;;;5033649;28;20679;-68
2022/02/02 11:30:30;;;;;;;0.30;0.30;;;7.60;98.60;;;;;;5033365;28;20203;-68
2022/02/02 11:33:19;;;;;;;0.30;0.30;;;7.40;98.60;;;;;;5033447;28;20172;-69
2022/02/02 11:35:47;;;;;;;0.30;0.30;;;7.30;99.40;;;;;;5033485;28;20168;-68
2022/02/02 11:38:23;;;;;;;0.40;0.40;;;7.40;99.20;;;;;;5033155;28;20236;-69
2022/02/02 11:41:09;;;;;;;0.40;0.40;;;7.60;99.00;;;;;;5033461;28;20536;-68
2022/02/02 11:43:48;;;;;;;0.30;0.30;;;7.70;98.50;;;;;;5033609;28;20279;-68
2022/02/02 11:49:54;;;;;;;0.40;0.40;;;7.80;97.90;;;;;;5033197;28;20193;-68
2022/02/02 11:52:51;;;;;;;0.40;0.40;;;7.70;97.60;;;;;;5033317;28;20169;-68
2022/02/02 11:55:16;;;;;;;0.30;0.30;;;7.50;97.70;;;;;;5032962;28;20231;-68
2022/02/02 11:58:20;;;;;;;0.30;0.30;;;7.40;98.10;;;;;;5033022;28;20222;-68
2022/02/02 12:00:56;;;;;;;0.40;0.40;;;7.50;98.10;;;;;;5033350;28;20171;-69
2022/02/02 12:03:57;;;;;;;0.35;0.35;;;7.60;98.50;;;;;;5031948;28;20166;-69
2022/02/02 12:44:36;;;;;;;0.40;0.40;;;7.20;98.60;;;;;;5036750;28;20178;-69
2022/02/02 12:50:01;;;;;;;0.30;0.30;;;7.60;98.80;;;;;;5036038;28;20557;-69
2022/02/02 13:00:40;;;;;;;0.30;0.30;;;7.80;98.10;;;;;;5035627;28;20167;-68
2022/02/02 13:03:07;;;;;;;0.40;0.40;;;7.70;98.20;;;;;;5036120;28;20277;-69
2022/02/02 13:05:36;;;;;;;0.30;0.30;;;7.70;98.30;;;;;;5036021;28;20221;-69
2022/02/02 13:08:04;;;;;;;0.30;0.30;;;7.80;98.90;;;;;;5036058;28;20262;-69
2022/02/02 13:10:33;;;;;;;0.30;0.30;;;7.90;99.10;;;;;;5035826;28;20163;-69
2022/02/02 13:13:18;;;;;;;0.30;0.30;;;7.90;98.70;;;;;;5035771;28;20638;-69
2022/02/02 13:18:23;;;;;;;0.40;0.40;;;7.60;99.90;;;;;;5035546;28;20241;-69
2022/02/02 13:20:54;;;;;;;0.30;0.30;;;7.70;99.90;;;;;;5035774;28;20194;-69
2022/02/02 13:23:29;;;;;;;0.30;0.30;;;7.80;99.70;;;;;;5035566;28;20183;-68
2022/02/02 13:26:05;;;;;;;0.30;0.30;;;8.00;99.30;;;;;;5035556;28;20605;-68
2022/02/02 13:28:42;;;;;;;0.30;0.30;;;7.90;99.10;;;;;;5035446;28;20477;-69
2022/02/02 13:31:08;;;;;;;0.30;0.30;;;8.00;99.80;;;;;;5035659;28;20179;-68
2022/02/02 13:33:38;;;;;;;0.30;0.30;;;7.90;99.20;;;;;;5035371;28;20209;-69
2022/02/02 13:47:41;;;;;;;0.30;0.30;;;7.70;99.40;;;;;;5035500;28;20195;-69
2022/02/02 13:52:51;;;;;;;0.30;0.30;;;8.00;99.50;;;;;;5035058;28;20201;-69
2022/02/02 13:55:38;;;;;;;0.30;0.30;;;8.10;98.90;;;;;;5035041;28;20195;-69
2022/02/02 13:58:40;;;;;;;0.30;0.30;;;8.20;99.00;;;;;;5035168;28;20252;-69
2022/02/02 14:11:41;;;;;;;0.30;0.30;;;8.20;98.20;;;;;;5034700;28;20181;-69
2022/02/02 14:33:03;;;;;;;0.30;0.30;;;7.90;99.50;;;;;;5034584;28;20205;-68
2022/02/02 14:35:29;;;;;;;0.30;0.30;;;7.80;99.20;;;;;;5034108;28;20188;-68
2022/02/02 14:37:55;;;;;;;0.30;0.30;;;7.80;99.60;;;;;;5031920;28;20558;-69
2022/02/02 14:40:32;;;;;;;0.30;0.30;;;7.80;99.60;;;;;;5032169;28;20182;-68
2022/02/02 14:42:59;;;;;;;0.30;0.30;;;7.80;99.30;;;;;;5033980;28;20624;-69
2022/02/02 14:45:27;;;;;;;0.30;0.30;;;7.80;99.20;;;;;;5032166;28;20724;-69
2022/02/02 14:48:00;;;;;;;0.32;0.32;;;7.70;99.50;;;;;;5034155;28;20182;-68
2022/02/02 14:50:46;;;;;;;0.30;0.30;;;7.70;99.50;;;;;;5034011;28;20173;-68
2022/02/02 14:53:22;;;;;;;0.30;0.30;;;7.60;99.60;;;;;;5033939;28;20175;-68
2022/02/02 14:56:20;;;;;;;0.30;0.30;;;7.60;99.90;;;;;;5033930;28;20253;-68
2022/02/02 15:28:07;;;;;;;1.67;1.58;;;7.40;99.90;;;;;;5033316;28;20588;-68
2022/02/02 15:33:03;;;;;;;0.30;0.30;;;7.30;99.90;;;;;;5033274;28;20562;-68
2022/02/02 15:35:30;;;;;;;0.30;0.30;;;7.40;99.90;;;;;;5033264;28;20294;-69
2022/02/02 15:38:03;;;;;;;0.40;0.40;;;7.50;99.90;;;;;;5033397;28;20197;-69
2022/02/02 15:40:47;;;;;;;0.30;0.30;;;7.50;99.90;;;;;;5033065;28;20200;-68
2022/02/02 16:04:36;;;;;;;0.30;0.30;;;7.10;99.90;;;;;;5036992;28;20681;-68
2022/02/02 16:07:05;;;;;;;0.30;0.30;;;7.10;99.90;;;;;;5037156;28;20172;-68
2022/02/02 16:09:49;;;;;;;0.30;0.30;;;7.20;99.90;;;;;;5036800;28;20175;-69
2022/02/02 16:12:22;;;;;;;0.30;0.30;;;7.10;99.90;;;;;;5037367;28;20175;-69
2022/02/02 16:14:58;;;;;;;0.30;0.30;;;7.20;99.90;;;;;;5036845;28;20570;-68
2022/02/02 16:31:55;;;;;;;0.40;0.40;;;7.20;99.90;;;;;;5036876;28;20631;-68
2022/02/02 16:36:16;;;;;;;0.40;0.40;;;7.10;99.90;;;;;;5036438;28;20178;-68
2022/02/02 16:38:56;;;;;;;0.30;0.30;;;7.10;99.90;;;;;;5036337;28;20639;-68
2022/02/02 16:44:06;;;;;;;0.30;0.30;;;7.20;99.90;;;;;;5036214;28;20218;-68
2022/02/02 16:46:31;;;;;;;0.40;0.40;;;7.10;99.90;;;;;;5036272;28;20170;-69
2022/02/02 16:48:57;;;;;;;0.37;0.37;;;7.20;99.90;;;;;;5035945;28;20175;-69
2022/02/02 16:51:23;;;;;;;0.40;0.40;;;7.20;99.90;;;;;;5036334;28;20167;-68
2022/02/02 16:53:51;;;;;;;0.33;0.33;;;7.20;99.90;;;;;;5036019;28;20716;-68
2022/02/02 17:35:00;;;;;;;0.40;0.40;;;7.10;99.90;;;;;;5026481;28;20260;-68
2022/02/02 17:43:40;;;;;;;0.30;0.30;;;7.20;99.90;;;;;;5035287;28;20572;-68
2022/02/02 17:45:35;;;;;;;0.30;0.30;;;7.20;99.90;;;;;;5017671;28;20665;-69
2022/02/02 17:56:24;;;;;;;0.30;0.30;;;7.20;99.90;;;;;;5035440;28;20249;-69
2022/02/02 17:57:34;;;;;;;0.30;0.30;;;7.10;99.90;;;;;;5034963;28;20209;-69
2022/02/02 18:16:25;;;;;;;0.30;0.30;;;7.10;99.90;;;;;;5018566;28;20218;-68
2022/02/02 18:19:00;;;;;;;0.30;0.30;;;7.10;99.90;;;;;;5034191;28;20203;-69
2022/02/02 18:21:28;;;;;;;0.40;0.40;;;7.10;99.90;;;;;;5035153;28;20163;-68
2022/02/02 18:24:10;;;;;;;0.40;0.40;;;7.00;99.90;;;;;;5034098;28;20190;-69
2022/02/02 18:26:43;;;;;;;0.30;0.30;;;6.90;99.90;;;;;;5034398;28;20147;-69
2022/02/02 18:34:19;;;;;;;0.30;0.30;;;6.80;99.90;;;;;;5034169;28;20264;-68
2022/02/02 18:47:01;;;;;;;0.30;0.30;;;7.00;99.90;;;;;;5034062;28;20182;-69
2022/02/02 18:49:42;;;;;;;0.30;0.30;;;7.00;99.90;;;;;;5033778;28;20237;-69
2022/02/02 18:57:28;;;;;;;0.40;0.40;;;7.10;99.90;;;;;;5034184;28;20237;-69
2022/02/02 19:03:36;;;;;;;0.40;0.40;;;7.10;99.90;;;;;;4992756;28;20180;-69
2022/02/02 19:52:58;;;;;;;0.32;0.32;;;6.90;99.90;;;;;;5033424;28;20182;-69
2022/02/02 19:55:41;;;;;;;0.30;0.30;;;6.90;99.90;;;;;;5032981;28;20281;-69
2022/02/02 20:11:43;;;;;;;0.40;0.40;;;7.10;99.90;;;;;;5033060;28;20583;-69
2022/02/02 20:14:12;;;;;;;0.40;0.40;;;7.10;99.80;;;;;;5032931;28;20281;-69
2022/02/02 20:16:38;;;;;;;0.40;0.40;;;6.90;99.40;;;;;;5032989;28;20175;-69
2022/02/02 20:19:07;;;;;;;0.40;0.40;;;6.90;99.50;;;;;;5033030;28;20739;-69
2022/02/02 20:21:37;;;;;;;0.40;0.40;;;6.90;99.60;;;;;;5033113;28;20170;-69
2022/02/02 20:24:06;;;;;;;0.40;0.40;;;6.90;99.60;;;;;;5032852;28;20194;-69
2022/02/02 20:26:34;;;;;;;0.40;0.40;;;6.80;99.70;;;;;;5032887;28;20175;-69
2022/02/02 20:29:01;;;;;;;0.30;0.30;;;6.80;99.70;;;;;;5032810;28;20172;-69
2022/02/02 20:31:27;;;;;;;0.30;0.30;;;6.90;99.90;;;;;;5032994;28;20236;-69
2022/02/02 20:33:53;;;;;;;0.40;0.40;;;6.90;99.90;;;;;;5032710;28;20277;-69
2022/02/02 20:36:18;;;;;;;0.30;0.30;;;6.90;99.90;;;;;;5032772;28;20225;-69
2022/02/02 20:38:44;;;;;;;0.30;0.30;;;6.90;99.90;;;;;;5032690;28;20202;-69
2022/02/02 20:41:10;;;;;;;0.30;0.30;;;6.90;99.90;;;;;;5032818;28;20408;-69
2022/02/02 21:04:58;;;;;;;0.30;0.30;;;6.80;99.90;;;;;;5035922;28;20560;-69
2022/02/02 21:15:11;;;;;;;0.38;0.38;;;6.90;99.60;;;;;;5035796;28;20205;-69
2022/02/02 21:17:39;;;;;;;0.30;0.30;;;6.80;99.80;;;;;;5035659;28;20212;-69
2022/02/02 21:22:48;;;;;;;0.30;0.30;;;6.70;99.50;;;;;;5035654;28;20577;-69
2022/02/02 21:28:01;;;;;;;0.40;0.40;;;6.70;99.80;;;;;;5035641;28;20752;-69
2022/02/02 21:30:31;;;;;;;0.30;0.30;;;6.80;99.90;;;;;;5035238;28;20654;-69
2022/02/02 21:32:57;;;;;;;0.30;0.30;;;6.80;99.90;;;;;;5035265;28;20178;-69
2022/02/02 21:35:24;;;;;;;0.30;0.30;;;6.80;99.90;;;;;;5035353;28;20244;-69
2022/02/02 21:37:58;;;;;;;0.40;0.40;;;6.90;99.90;;;;;;5035359;28;20191;-69
2022/02/02 21:40:27;;;;;;;0.30;0.30;;;6.90;99.80;;;;;;5035306;28;20679;-69
2022/02/02 21:42:57;;;;;;;0.30;0.30;;;6.80;99.60;;;;;;5035417;28;20255;-69
2022/02/02 21:45:26;;;;;;;0.60;0.60;;;6.80;99.40;;;;;;5035197;28;20565;-69
2022/02/02 21:47:52;;;;;;;0.30;0.30;;;6.80;99.40;;;;;;5035254;28;20213;-69
2022/02/02 21:50:18;;;;;;;0.40;0.40;;;6.80;99.50;;;;;;5035128;28;20174;-69
2022/02/02 21:52:46;;;;;;;0.30;0.30;;;6.80;99.70;;;;;;5033977;28;20818;-69
2022/02/02 21:55:12;;;;;;;0.30;0.30;;;6.90;99.80;;;;;;5035007;28;20631;-69
2022/02/02 21:57:38;;;;;;;4.82;1.27;;;6.90;99.70;;;;;;5034448;28;20194;-69
2022/02/02 22:00:07;;;;;;;0.40;0.40;;;6.90;99.80;;;;;;5034763;28;20628;-69
2022/02/02 22:02:34;;;;;;;0.30;0.30;;;6.90;99.70;;;;;;5034987;28;20252;-69
2022/02/02 22:05:04;;;;;;;0.30;0.30;;;6.90;99.60;;;;;;5034838;28;20213;-69
2022/02/02 22:07:31;;;;;;;0.30;0.30;;;6.90;99.60;;;;;;5035107;28;20171;-69
2022/02/02 22:09:58;;;;;;;0.30;0.30;;;6.90;99.50;;;;;;5034531;28;20236;-69
2022/02/02 22:12:25;;;;;;;0.40;0.40;;;6.80;99.70;;;;;;5035299;28;20526;-69
2022/02/02 22:14:52;;;;;;;0.40;0.40;;;6.80;99.70;;;;;;5034585;28;20269;-69
2022/02/02 22:17:20;;;;;;;0.40;0.40;;;6.80;99.60;;;;;;5034762;28;20591;-69
2022/02/02 22:19:50;;;;;;;0.30;0.30;;;6.80;99.60;;;;;;5034549;28;20179;-69
2022/02/02 22:22:16;;;;;;;0.35;0.35;;;6.80;99.60;;;;;;5034808;28;20245;-69
2022/02/02 22:24:41;;;;;;;0.30;0.30;;;6.70;99.70;;;;;;5034415;28;20272;-69
2022/02/02 22:27:07;;;;;;;0.30;0.30;;;6.70;99.90;;;;;;5034630;28;20413;-69
2022/02/02 22:29:33;;;;;;;0.30;0.30;;;6.80;99.80;;;;;;5034228;28;20621;-69
2022/02/02 22:31:58;;;;;;;0.30;0.30;;;6.80;99.70;;;;;;5034687;28;20521;-69
2022/02/02 22:34:24;;;;;;;0.40;0.40;;;6.80;99.70;;;;;;5034361;28;20676;-69
2022/02/02 22:36:53;;;;;;;0.30;0.30;;;6.80;99.70;;;;;;5034184;28;20611;-69
2022/02/02 22:39:18;;;;;;;0.40;0.40;;;6.80;99.70;;;;;;5034142;28;20167;-69
2022/02/02 22:41:45;;;;;;;0.30;0.30;;;6.80;99.50;;;;;;5034165;28;20248;-69
2022/02/02 22:44:13;;;;;;;0.30;0.30;;;6.80;99.50;;;;;;5034076;28;20190;-69
2022/02/02 22:46:40;;;;;;;0.30;0.30;;;6.80;99.50;;;;;;5034301;28;20514;-68
2022/02/02 22:49:05;;;;;;;0.38;0.38;;;6.80;99.40;;;;;;5033931;28;20191;-69
2022/02/02 22:51:32;;;;;;;0.40;0.40;;;6.70;99.50;;;;;;5034029;28;20597;-69
2022/02/02 22:53:59;;;;;;;0.38;0.38;;;6.70;99.60;;;;;;5034235;28;20425;-69
2022/02/02 22:56:26;;;;;;;0.30;0.30;;;6.80;99.60;;;;;;5033961;28;20177;-69
2022/02/02 22:58:54;;;;;;;0.30;0.30;;;6.70;99.50;;;;;;5033787;28;20199;-69
2022/02/02 23:01:20;;;;;;;0.40;0.40;;;6.80;99.60;;;;;;5033927;28;20652;-68
2022/02/02 23:03:51;;;;;;;0.30;0.30;;;6.70;99.50;;;;;;5032559;28;20226;-69
2022/02/02 23:06:17;;;;;;;0.30;0.30;;;6.70;99.60;;;;;;5033821;28;20182;-69
2022/02/02 23:08:43;;;;;;;0.30;0.30;;;6.60;99.40;;;;;;5033728;28;20187;-69
2022/02/02 23:11:09;;;;;;;0.40;0.40;;;6.70;99.60;;;;;;5033033;28;20175;-69
2022/02/02 23:13:35;;;;;;;0.30;0.30;;;6.60;99.70;;;;;;5033672;28;20449;-69
2022/02/02 23:16:15;;;;;;;0.70;0.70;;;6.50;99.80;;;;;;5033616;28;20450;-68
2022/02/02 23:18:41;;;;;;;0.35;0.35;;;6.50;99.80;;;;;;5032478;28;20198;-69
2022/02/02 23:21:10;;;;;;;2.45;0.88;;;6.60;99.90;;;;;;5033752;28;20171;-69
2022/02/02 23:23:42;;;;;;;0.30;0.30;;;6.60;99.90;;;;;;5033495;28;20211;-69
2022/02/02 23:26:09;;;;;;;0.40;0.40;;;6.50;99.90;;;;;;5033654;28;20159;-69
2022/02/02 23:28:40;;;;;;;0.40;0.40;;;6.60;99.90;;;;;;5033443;28;20175;-70
2022/02/02 23:31:09;;;;;;;0.40;0.40;;;6.60;99.90;;;;;;5033618;28;20711;-69
2022/02/02 23:33:37;;;;;;;0.40;0.40;;;6.60;99.90;;;;;;5033200;28;20256;-69
2022/02/02 23:36:04;;;;;;;0.40;0.40;;;6.60;99.90;;;;;;5033460;28;20183;-69
2022/02/02 23:38:30;;;;;;;0.30;0.30;;;6.60;99.90;;;;;;5033218;28;20190;-69
2022/02/02 23:43:28;;;;;;;0.30;0.30;;;6.60;99.90;;;;;;5033607;28;20225;-69
2022/02/02 23:45:59;;;;;;;0.30;0.30;;;6.60;99.90;;;;;;5033301;28;20171;-69
2022/02/02 23:48:28;;;;;;;0.40;0.40;;;6.60;99.90;;;;;;5033598;28;20174;-69
2022/02/02 23:51:00;;;;;;;0.40;0.40;;;6.70;99.90;;;;;;5033514;28;20175;-68
2022/02/02 23:53:29;;;;;;;0.30;0.30;;;6.70;99.90;;;;;;5033402;28;20258;-69
2022/02/02 23:56:02;;;;;;;0.30;0.30;;;6.70;99.90;;;;;;5033467;28;20281;-69